createdAt,value
2019-01-27T00:01:43.536Z,100.00
2019-01-27T00:04:47.177Z,100.00
2019-01-27T00:07:50.757Z,100.00
2019-01-27T00:10:54.356Z,100.00
2019-01-27T00:13:58.100Z,100.00
2019-01-27T00:17:01.690Z,100.00
2019-01-27T00:20:06.398Z,100.00
2019-01-27T00:23:10.015Z,99.85
2019-01-27T00:26:13.624Z,98.97
2019-01-27T00:29:17.275Z,98.74
2019-01-27T00:32:20.933Z,98.45
2019-01-27T00:35:24.630Z,98.44
2019-01-27T00:38:28.315Z,98.86
2019-01-27T00:41:31.987Z,99.08
2019-01-27T00:44:35.627Z,98.87
2019-01-27T00:47:39.229Z,98.58
2019-01-27T00:50:42.859Z,98.31
2019-01-27T00:53:46.579Z,98.11
2019-01-27T00:56:50.116Z,97.36
2019-01-27T00:59:53.684Z,97.81
2019-01-27T01:02:57.315Z,97.57
2019-01-27T01:06:01.064Z,97.63
2019-01-27T01:09:06.932Z,97.33
2019-01-27T01:12:10.689Z,97.42
2019-01-27T01:15:14.353Z,97.56
2019-01-27T01:18:18.029Z,97.27
2019-01-27T01:21:21.869Z,96.96
2019-01-27T01:24:25.459Z,96.24
2019-01-27T01:27:29.177Z,95.81
2019-01-27T01:30:32.843Z,96.23
2019-01-27T01:33:36.395Z,96.30
2019-01-27T01:36:40.134Z,95.54
2019-01-27T01:39:43.685Z,95.00
2019-01-27T01:42:47.430Z,95.06
2019-01-27T01:45:51.005Z,95.47
2019-01-27T01:48:54.613Z,95.32
2019-01-27T01:51:58.295Z,95.39
2019-01-27T01:55:01.869Z,95.64
2019-01-27T01:58:05.933Z,95.42
2019-01-27T02:01:09.669Z,95.68
2019-01-27T02:04:13.366Z,95.62
2019-01-27T02:07:17.040Z,96.23
2019-01-27T02:10:21.235Z,96.36
2019-01-27T02:13:24.881Z,96.62
2019-01-27T02:16:28.578Z,97.48
2019-01-27T02:19:32.343Z,96.59
2019-01-27T02:22:35.989Z,96.35
2019-01-27T02:25:39.637Z,95.88
2019-01-27T02:28:43.361Z,95.48
2019-01-27T02:31:46.964Z,93.92
2019-01-27T02:34:50.659Z,93.83
2019-01-27T02:37:55.310Z,92.62
2019-01-27T02:40:58.976Z,91.48
2019-01-27T02:44:02.602Z,91.26
2019-01-27T02:47:06.328Z,91.48
2019-01-27T02:50:10.082Z,91.34
2019-01-27T02:53:13.535Z,91.25
2019-01-27T02:56:17.178Z,89.95
2019-01-27T02:59:20.784Z,89.45
2019-01-27T03:02:24.273Z,89.12
2019-01-27T03:05:39.786Z,88.49
2019-01-27T03:08:48.919Z,88.11
2019-01-27T03:11:52.570Z,87.67
2019-01-27T03:14:56.253Z,87.69
2019-01-27T03:17:59.870Z,86.96
2019-01-27T03:21:03.509Z,86.90
2019-01-27T03:24:07.198Z,87.53
2019-01-27T03:27:10.786Z,87.70
2019-01-27T03:30:16.713Z,88.59
2019-01-27T03:33:20.365Z,88.31
2019-01-27T03:36:23.939Z,88.29
2019-01-27T03:39:27.566Z,88.42
2019-01-27T03:42:31.132Z,88.30
2019-01-27T03:45:34.662Z,88.56
2019-01-27T03:48:38.312Z,89.05
2019-01-27T03:51:41.920Z,89.46
2019-01-27T03:54:45.612Z,89.50
2019-01-27T03:57:49.131Z,88.80
2019-01-27T04:00:52.725Z,88.94
2019-01-27T04:03:56.311Z,88.97
2019-01-27T04:06:59.998Z,89.18
2019-01-27T04:10:03.652Z,89.31
2019-01-27T04:13:07.282Z,90.81
2019-01-27T04:16:10.919Z,89.60
2019-01-27T04:19:14.540Z,90.33
2019-01-27T04:22:18.095Z,91.53
2019-01-27T04:25:21.630Z,92.67
2019-01-27T04:28:25.247Z,93.99
2019-01-27T04:31:28.835Z,94.96
2019-01-27T04:34:32.450Z,95.23
2019-01-27T04:37:36.057Z,95.53
2019-01-27T04:40:39.673Z,96.53
2019-01-27T04:43:43.249Z,98.13
2019-01-27T04:46:46.900Z,98.41
2019-01-27T04:49:50.490Z,99.24
2019-01-27T04:52:54.171Z,100.00
2019-01-27T04:55:57.770Z,100.00
2019-01-27T04:59:01.295Z,99.51
2019-01-27T05:02:04.965Z,100.00
2019-01-27T05:05:09.183Z,100.00
2019-01-27T05:08:12.806Z,100.00
2019-01-27T05:11:16.413Z,100.00
2019-01-27T05:14:20.089Z,100.00
2019-01-27T05:17:23.753Z,100.00
2019-01-27T05:20:27.493Z,100.00
2019-01-27T05:23:31.106Z,100.00
2019-01-27T05:26:34.779Z,100.00
2019-01-27T05:29:38.446Z,100.00
2019-01-27T05:32:41.968Z,100.00
2019-01-27T05:35:45.662Z,100.00
2019-01-27T05:38:49.351Z,100.00
2019-01-27T05:41:53.112Z,100.00
2019-01-27T05:44:56.805Z,100.00
2019-01-27T05:48:00.422Z,100.00
2019-01-27T05:51:04.191Z,100.00
2019-01-27T05:54:07.884Z,100.00
2019-01-27T05:57:11.538Z,100.00
2019-01-27T06:00:17.576Z,100.00
2019-01-27T06:03:21.197Z,100.00
2019-01-27T06:06:24.717Z,100.00
2019-01-27T06:09:28.402Z,100.00
2019-01-27T06:12:31.891Z,100.00
2019-01-27T06:15:35.557Z,100.00
2019-01-27T06:18:39.217Z,100.00
2019-01-27T06:21:42.806Z,100.00
2019-01-27T06:24:46.392Z,100.00
2019-01-27T06:27:49.910Z,100.00
2019-01-27T06:30:53.515Z,99.96
2019-01-27T06:34:02.516Z,99.40
2019-01-27T06:37:06.184Z,100.00
2019-01-27T06:40:09.723Z,99.67
2019-01-27T06:43:13.380Z,99.74
2019-01-27T06:46:16.922Z,99.83
2019-01-27T06:49:20.662Z,100.00
2019-01-27T06:52:24.229Z,99.76
2019-01-27T06:55:27.853Z,99.11
2019-01-27T06:58:36.748Z,99.28
2019-01-27T07:01:47.213Z,99.06
2019-01-27T07:04:57.842Z,99.20
2019-01-27T07:08:08.475Z,98.86
2019-01-27T07:13:20.080Z,98.87
2019-01-27T07:16:29.040Z,99.02
2019-01-27T07:20:10.605Z,99.21
2019-01-27T07:24:16.596Z,99.25
2019-01-27T07:27:56.357Z,99.40
2019-01-27T07:33:09.462Z,99.73
2019-01-27T07:36:18.006Z,99.77
2019-01-27T07:39:25.779Z,99.24
2019-01-27T07:42:34.469Z,99.12
2019-01-27T07:45:44.388Z,98.49
2019-01-27T07:48:52.195Z,97.88
2019-01-27T07:52:05.896Z,97.76
2019-01-27T07:55:32.570Z,98.48
2019-01-27T07:58:45.209Z,98.37
2019-01-27T08:01:53.889Z,96.55
2019-01-27T08:05:02.779Z,96.63
2019-01-27T08:08:18.606Z,96.60
2019-01-27T08:11:41.449Z,94.64
2019-01-27T08:14:49.326Z,94.37
2019-01-27T08:17:59.972Z,94.49
2019-01-27T08:21:08.563Z,94.14
2019-01-27T08:24:17.202Z,92.50
2019-01-27T08:29:26.996Z,91.96
2019-01-27T08:34:39.828Z,91.67
2019-01-27T08:37:48.313Z,90.76
2019-01-27T08:40:57.111Z,90.36
2019-01-27T08:44:13.632Z,90.51
2019-01-27T08:47:17.257Z,90.26
2019-01-27T08:50:20.809Z,89.45
2019-01-27T08:53:24.419Z,89.48
2019-01-27T08:56:28.001Z,88.12
2019-01-27T08:59:31.670Z,87.19
2019-01-27T09:02:40.432Z,86.25
2019-01-27T09:06:04.107Z,85.79
2019-01-27T09:09:15.566Z,85.46
2019-01-27T09:12:24.315Z,86.49
2019-01-27T09:15:41.890Z,86.60
2019-01-27T09:18:57.459Z,86.19
2019-01-27T09:22:07.146Z,85.57
2019-01-27T09:25:16.728Z,85.52
2019-01-27T09:28:29.211Z,86.60
2019-01-27T09:31:45.757Z,85.35
2019-01-27T09:34:53.506Z,85.13
2019-01-27T09:40:05.165Z,84.48
2019-01-27T09:43:20.214Z,84.67
2019-01-27T09:46:32.793Z,84.88
2019-01-27T09:49:45.447Z,84.32
2019-01-27T09:52:54.990Z,84.41
2019-01-27T09:56:12.006Z,83.10
2019-01-27T09:59:24.828Z,82.39
2019-01-27T10:02:34.940Z,82.85
2019-01-27T10:06:13.174Z,84.23
2019-01-27T10:09:25.783Z,83.55
2019-01-27T10:12:36.451Z,83.61
2019-01-27T10:17:47.126Z,83.48
2019-01-27T10:20:59.920Z,86.45
2019-01-27T10:24:07.782Z,86.53
2019-01-27T10:27:16.305Z,88.75
2019-01-27T10:30:26.266Z,90.43
2019-01-27T10:33:39.044Z,92.29
2019-01-27T10:36:50.987Z,93.50
2019-01-27T10:40:30.587Z,94.77
2019-01-27T10:44:09.368Z,95.83
2019-01-27T10:48:17.931Z,96.06
2019-01-27T10:51:32.506Z,96.44
2019-01-27T10:54:41.031Z,96.55
2019-01-27T10:58:25.821Z,97.23
2019-01-27T11:01:37.859Z,97.90
2019-01-27T11:04:53.893Z,98.33
2019-01-27T11:10:11.697Z,98.91
2019-01-27T11:15:25.082Z,99.04
2019-01-27T11:18:36.690Z,99.01
2019-01-27T11:21:54.187Z,98.35
2019-01-27T11:27:04.169Z,96.22
2019-01-27T11:30:14.255Z,92.83
2019-01-27T11:33:40.756Z,91.50
2019-01-27T11:36:51.362Z,88.92
2019-01-27T11:42:03.351Z,85.43
2019-01-27T11:45:18.823Z,82.98
2019-01-27T11:48:27.477Z,81.18
2019-01-27T11:51:35.221Z,82.61
2019-01-27T11:54:38.783Z,80.41
2019-01-27T11:57:42.361Z,78.81
2019-01-27T12:00:48.775Z,79.42
2019-01-27T12:03:52.325Z,77.11
2019-01-27T12:06:55.981Z,76.21
2019-01-27T12:09:59.583Z,75.53
2019-01-27T12:13:03.222Z,75.59
2019-01-27T12:16:06.736Z,73.52
2019-01-27T12:19:10.261Z,74.60
2019-01-27T12:22:13.892Z,73.12
2019-01-27T12:25:17.602Z,73.69
2019-01-27T12:28:21.192Z,74.05
2019-01-27T12:31:24.823Z,73.50
2019-01-27T12:34:30.568Z,73.17
2019-01-27T12:37:34.234Z,73.10
2019-01-27T12:40:37.978Z,73.72
2019-01-27T12:43:41.507Z,74.10
2019-01-27T12:46:45.100Z,72.72
2019-01-27T12:49:48.627Z,73.72
2019-01-27T12:52:52.485Z,74.07
2019-01-27T12:55:56.228Z,74.23
2019-01-27T12:58:59.861Z,74.77
2019-01-27T13:02:03.500Z,76.11
2019-01-27T13:05:10.388Z,76.75
2019-01-27T13:08:11.035Z,75.26
2019-01-27T13:11:14.748Z,75.87
2019-01-27T13:14:18.447Z,74.13
2019-01-27T13:17:22.122Z,75.11
2019-01-27T13:20:25.749Z,75.26
2019-01-27T13:23:29.451Z,76.03
2019-01-27T13:26:33.039Z,76.12
2019-01-27T13:29:36.631Z,76.38
2019-01-27T13:32:40.243Z,76.77
2019-01-27T13:35:43.884Z,77.40
2019-01-27T13:38:51.105Z,78.83
2019-01-27T13:41:51.201Z,79.44
2019-01-27T13:44:54.843Z,78.08
2019-01-27T13:47:59.178Z,77.28
2019-01-27T13:51:02.097Z,77.22
2019-01-27T13:54:05.732Z,78.53
2019-01-27T13:57:09.473Z,79.16
2019-01-27T14:00:17.159Z,80.01
2019-01-27T14:03:20.821Z,81.14
2019-01-27T14:06:24.421Z,81.73
2019-01-27T14:09:28.014Z,81.34
2019-01-27T14:12:31.669Z,81.78
2019-01-27T14:15:35.746Z,81.31
2019-01-27T14:18:39.495Z,80.15
2019-01-27T14:21:43.376Z,80.20
2019-01-27T14:24:47.066Z,79.05
2019-01-27T14:27:52.066Z,79.46
2019-01-27T14:30:54.742Z,79.41
2019-01-27T14:33:58.680Z,78.17
2019-01-27T14:37:02.512Z,78.05
2019-01-27T14:40:08.098Z,79.36
2019-01-27T14:43:11.897Z,76.97
2019-01-27T14:46:15.576Z,76.59
2019-01-27T14:52:50.118Z,76.96
2019-01-27T14:55:53.781Z,76.74
2019-01-27T14:58:57.639Z,77.73
2019-01-27T15:02:01.255Z,78.61
2019-01-27T15:05:05.542Z,79.09
2019-01-27T15:08:09.175Z,78.77
2019-01-27T15:11:12.778Z,80.09
2019-01-27T15:14:16.432Z,81.59
2019-01-27T15:17:19.937Z,82.54
2019-01-27T15:20:26.783Z,83.17
2019-01-27T15:23:30.391Z,84.61
2019-01-27T15:26:33.989Z,85.32
2019-01-27T15:29:37.667Z,85.79
2019-01-27T15:32:41.495Z,87.05
2019-01-27T15:35:45.132Z,87.99
2019-01-27T15:38:48.762Z,88.16
2019-01-27T15:41:52.367Z,89.23
2019-01-27T15:44:55.971Z,90.72
2019-01-27T15:47:59.719Z,91.92
2019-01-27T15:51:03.299Z,92.93
2019-01-27T15:54:06.867Z,94.21
2019-01-27T15:57:10.471Z,95.17
2019-01-27T16:00:17.390Z,95.85
2019-01-27T16:03:20.980Z,95.97
2019-01-27T16:06:28.118Z,96.12
2019-01-27T16:09:31.626Z,95.74
2019-01-27T16:12:35.171Z,94.55
2019-01-27T16:15:38.888Z,94.23
2019-01-27T16:18:42.524Z,94.94
2019-01-27T16:21:46.118Z,95.68
2019-01-27T16:24:49.661Z,94.92
2019-01-27T16:27:53.307Z,95.24
2019-01-27T16:31:02.163Z,94.59
2019-01-27T16:34:12.058Z,93.98
2019-01-27T16:37:15.868Z,95.05
2019-01-27T16:40:19.494Z,94.34
2019-01-27T16:43:23.216Z,95.15
2019-01-27T16:46:27.111Z,96.21
2019-01-27T16:49:30.778Z,96.77
2019-01-27T16:52:34.509Z,96.47
2019-01-27T16:55:38.095Z,96.49
2019-01-27T16:58:41.848Z,96.69
2019-01-27T17:01:45.562Z,96.38
2019-01-27T17:04:49.229Z,96.22
2019-01-27T17:07:52.863Z,96.09
2019-01-27T17:10:56.483Z,95.83
2019-01-27T17:14:00.240Z,95.56
2019-01-27T17:17:03.918Z,95.16
2019-01-27T17:20:10.336Z,94.97
2019-01-27T17:23:14.256Z,95.31
2019-01-27T17:26:17.867Z,94.64
2019-01-27T17:29:21.502Z,93.70
2019-01-27T17:32:25.102Z,94.30
2019-01-27T17:35:28.795Z,94.34
2019-01-27T17:38:40.208Z,94.69
2019-01-27T17:41:37.152Z,94.71
2019-01-27T17:44:40.903Z,94.76
2019-01-27T17:47:44.632Z,95.64
2019-01-27T17:50:48.194Z,95.55
2019-01-27T17:53:55.180Z,95.74
2019-01-27T17:57:03.906Z,95.79
2019-01-27T18:00:15.792Z,96.43
2019-01-27T18:03:29.626Z,95.73
2019-01-27T18:06:39.382Z,94.63
2019-01-27T18:10:02.046Z,90.76
2019-01-27T18:14:08.156Z,89.44
2019-01-27T18:17:12.103Z,86.72
2019-01-27T18:20:16.306Z,87.31
2019-01-27T18:23:21.153Z,86.53
2019-01-27T18:26:24.934Z,86.35
2019-01-27T18:29:28.685Z,86.77
2019-01-27T18:32:33.469Z,87.08
2019-01-27T18:35:37.404Z,87.58
2019-01-27T18:38:41.629Z,88.88
2019-01-27T18:41:45.298Z,89.08
2019-01-27T18:44:49.015Z,89.65
2019-01-27T18:47:52.786Z,89.71
2019-01-27T18:50:56.452Z,89.91
2019-01-27T18:56:09.592Z,90.52
2019-01-27T18:59:19.377Z,90.94
2019-01-27T19:02:27.465Z,91.06
2019-01-27T19:05:36.195Z,91.20
2019-01-27T19:08:44.900Z,91.30
2019-01-27T19:11:53.553Z,91.81
2019-01-27T19:15:05.070Z,92.99
2019-01-27T19:18:14.926Z,94.15
2019-01-27T19:21:23.599Z,95.13
2019-01-27T19:24:32.538Z,95.83
2019-01-27T19:27:40.352Z,96.64
2019-01-27T19:30:49.968Z,96.83
2019-01-27T19:34:03.725Z,98.25
2019-01-27T19:37:13.435Z,99.84
2019-01-27T19:41:24.046Z,100.00
2019-01-27T19:44:37.153Z,99.66
2019-01-27T19:47:46.261Z,99.87
2019-01-27T19:51:02.359Z,99.31
2019-01-27T19:54:11.742Z,96.06
2019-01-27T19:57:31.620Z,94.29
2019-01-27T20:01:10.719Z,90.31
2019-01-27T20:04:24.637Z,88.22
2019-01-27T20:07:38.279Z,86.80
2019-01-27T20:10:50.793Z,87.70
2019-01-27T20:16:03.916Z,84.66
2019-01-27T20:19:12.125Z,82.97
2019-01-27T20:22:19.987Z,82.85
2019-01-27T20:25:29.000Z,82.66
2019-01-27T20:29:09.749Z,82.88
2019-01-27T20:32:23.391Z,83.34
2019-01-27T20:35:33.465Z,83.71
2019-01-27T20:38:42.391Z,82.90
2019-01-27T20:41:51.958Z,83.89
2019-01-27T20:45:03.068Z,84.46
2019-01-27T20:48:17.796Z,83.97
2019-01-27T20:51:31.102Z,85.10
2019-01-27T20:54:40.855Z,85.20
2019-01-27T20:58:00.263Z,83.27
2019-01-27T21:01:43.262Z,81.39
2019-01-27T21:04:59.024Z,81.27
2019-01-27T21:08:10.919Z,81.84
2019-01-27T21:11:19.929Z,80.97
2019-01-27T21:14:29.502Z,81.71
2019-01-27T21:17:52.246Z,81.04
2019-01-27T21:20:56.298Z,82.24
2019-01-27T21:23:59.835Z,82.12
2019-01-27T21:27:06.507Z,82.25
2019-01-27T21:30:09.942Z,81.87
2019-01-27T21:33:13.886Z,82.20
2019-01-27T21:36:18.724Z,82.92
2019-01-27T21:39:23.745Z,82.92
2019-01-27T21:42:27.399Z,83.89
2019-01-27T21:45:31.091Z,83.98
2019-01-27T21:48:34.837Z,84.58
2019-01-27T21:51:38.511Z,85.50
2019-01-27T21:54:42.066Z,86.21
2019-01-27T21:57:45.842Z,87.34
2019-01-27T22:00:49.489Z,87.81
2019-01-27T22:03:53.098Z,88.47
2019-01-27T22:06:56.741Z,89.60
2019-01-27T22:10:01.494Z,89.47
2019-01-27T22:13:05.110Z,89.04
2019-01-27T22:16:09.083Z,88.75
2019-01-27T22:19:12.648Z,89.43
2019-01-27T22:22:16.281Z,89.97
2019-01-27T22:25:20.295Z,89.01
2019-01-27T22:28:23.955Z,89.24
2019-01-27T22:31:27.491Z,89.23
2019-01-27T22:34:31.162Z,89.39
2019-01-27T22:37:39.354Z,89.85
2019-01-27T22:40:43.294Z,89.58
2019-01-27T22:43:46.824Z,88.48
2019-01-27T22:46:51.168Z,89.51
2019-01-27T22:49:54.919Z,88.54
2019-01-27T22:52:58.659Z,89.65
2019-01-27T22:56:02.355Z,88.82
2019-01-27T22:59:05.878Z,89.40
2019-01-27T23:02:09.996Z,89.23
2019-01-27T23:05:13.970Z,89.06
2019-01-27T23:08:18.484Z,89.01
2019-01-27T23:11:22.220Z,89.22
2019-01-27T23:14:25.786Z,89.59
2019-01-27T23:17:29.576Z,90.53
2019-01-27T23:20:33.338Z,90.82
2019-01-27T23:23:37.012Z,90.37
2019-01-27T23:26:40.596Z,90.29
2019-01-27T23:29:44.299Z,90.13
2019-01-27T23:32:47.826Z,89.92
2019-01-27T23:35:51.471Z,90.62
2019-01-27T23:38:55.094Z,91.24
2019-01-27T23:41:58.618Z,92.45
2019-01-27T23:45:02.100Z,93.21
2019-01-27T23:48:05.699Z,93.91
2019-01-27T23:51:09.257Z,93.70
2019-01-27T23:54:12.886Z,93.67
2019-01-27T23:57:16.470Z,93.27
